createdAt,value
2023-05-15T00:01:36.287Z,12.04
2023-05-15T00:04:40.212Z,12.07
2023-05-15T00:07:42.982Z,12.20
2023-05-15T00:10:54.103Z,12.26
2023-05-15T00:14:03.034Z,12.37
2023-05-15T00:17:06.180Z,12.45
2023-05-15T00:20:11.630Z,12.50
2023-05-15T00:23:14.136Z,12.55
2023-05-15T00:26:16.692Z,12.51
2023-05-15T00:29:19.482Z,12.55
2023-05-15T00:32:22.144Z,12.56
2023-05-15T00:35:26.409Z,12.65
2023-05-15T00:38:29.090Z,12.73
2023-05-15T00:41:33.009Z,12.80
2023-05-15T00:44:36.512Z,12.80
2023-05-15T00:47:39.818Z,12.78
2023-05-15T00:50:44.440Z,12.78
2023-05-15T00:53:46.977Z,12.76
2023-05-15T00:56:51.007Z,12.76
2023-05-15T00:59:54.082Z,12.77
2023-05-15T01:02:56.739Z,12.72
2023-05-15T01:06:00.851Z,12.68
2023-05-15T01:09:04.123Z,12.64
2023-05-15T01:12:08.930Z,12.68
2023-05-15T01:15:12.015Z,12.67
2023-05-15T01:18:14.667Z,12.66
2023-05-15T01:21:33.416Z,12.60
2023-05-15T01:24:49.142Z,12.49
2023-05-15T01:27:53.856Z,12.34
2023-05-15T01:30:57.302Z,12.27
2023-05-15T01:34:03.412Z,12.32
2023-05-15T01:37:07.074Z,12.37
2023-05-15T01:40:11.775Z,12.41
2023-05-15T01:43:20.102Z,12.46
2023-05-15T01:46:24.481Z,12.53
2023-05-15T01:49:28.412Z,12.57
2023-05-15T01:52:35.542Z,12.57
2023-05-15T01:55:39.138Z,12.56
2023-05-15T01:58:42.867Z,12.58
2023-05-15T02:01:46.010Z,12.60
2023-05-15T02:04:49.974Z,12.56
2023-05-15T02:07:52.966Z,12.53
2023-05-15T02:10:56.079Z,12.49
2023-05-15T02:14:00.172Z,12.40
2023-05-15T02:17:02.626Z,12.34
2023-05-15T02:20:07.678Z,12.34
2023-05-15T02:23:10.224Z,12.37
2023-05-15T02:26:26.538Z,12.30
2023-05-15T02:29:35.635Z,12.21
2023-05-15T02:32:43.570Z,12.12
2023-05-15T02:35:50.041Z,12.02
2023-05-15T02:38:54.348Z,12.00
2023-05-15T02:41:57.944Z,12.03
2023-05-15T02:45:01.730Z,12.17
2023-05-15T02:48:05.108Z,12.26
2023-05-15T02:51:08.287Z,12.35
2023-05-15T02:54:10.849Z,12.49
2023-05-15T02:57:13.425Z,12.60
2023-05-15T03:00:18.061Z,12.68
2023-05-15T03:03:20.648Z,12.72
2023-05-15T03:06:23.174Z,12.83
2023-05-15T03:09:26.318Z,12.88
2023-05-15T03:12:28.907Z,12.93
2023-05-15T03:15:32.821Z,12.92
2023-05-15T03:18:35.432Z,12.95
2023-05-15T03:21:38.009Z,12.99
2023-05-15T03:24:40.537Z,13.01
2023-05-15T03:27:43.033Z,13.00
2023-05-15T03:30:46.917Z,13.01
2023-05-15T03:33:49.980Z,13.02
2023-05-15T03:36:52.539Z,13.01
2023-05-15T03:39:55.191Z,12.97
2023-05-15T03:42:58.271Z,13.02
2023-05-15T03:46:02.225Z,13.03
2023-05-15T03:49:04.763Z,13.07
2023-05-15T03:52:07.941Z,13.11
2023-05-15T03:55:10.642Z,13.16
2023-05-15T03:58:13.163Z,13.20
2023-05-15T04:01:17.396Z,13.25
2023-05-15T04:04:20.178Z,13.28
2023-05-15T04:07:23.309Z,13.34
2023-05-15T04:10:26.530Z,13.44
2023-05-15T04:13:29.227Z,13.56
2023-05-15T04:16:33.274Z,13.67
2023-05-15T04:19:36.097Z,13.75
2023-05-15T04:22:38.966Z,13.83
2023-05-15T04:25:46.077Z,13.94
2023-05-15T04:29:00.280Z,14.06
2023-05-15T04:32:08.031Z,14.23
2023-05-15T04:35:12.594Z,14.33
2023-05-15T04:38:16.105Z,14.41
2023-05-15T04:41:18.797Z,14.57
2023-05-15T04:44:21.602Z,14.77
2023-05-15T04:47:26.108Z,14.91
2023-05-15T04:50:28.860Z,14.98
2023-05-15T04:53:31.423Z,15.17
2023-05-15T04:56:33.947Z,15.41
2023-05-15T04:59:36.652Z,15.44
2023-05-15T05:02:40.805Z,15.56
2023-05-15T05:05:43.384Z,15.81
2023-05-15T05:08:45.901Z,15.90
2023-05-15T05:11:48.653Z,16.09
2023-05-15T05:14:51.176Z,16.33
2023-05-15T05:17:55.277Z,16.46
2023-05-15T05:21:00.970Z,16.25
2023-05-15T05:24:03.526Z,16.34
2023-05-15T05:27:06.565Z,16.49
2023-05-15T05:30:10.099Z,16.70
2023-05-15T05:33:14.024Z,16.77
2023-05-15T05:36:16.567Z,16.74
2023-05-15T05:39:19.637Z,16.78
2023-05-15T05:42:22.203Z,16.67
2023-05-15T05:45:24.983Z,16.71
2023-05-15T05:48:29.039Z,16.72
2023-05-15T05:51:31.935Z,16.34
2023-05-15T05:54:34.591Z,16.33
2023-05-15T05:57:37.239Z,16.53
2023-05-15T06:00:39.728Z,16.65
2023-05-15T06:03:44.784Z,16.49
2023-05-15T06:06:47.419Z,16.36
2023-05-15T06:09:49.993Z,16.24
2023-05-15T06:12:52.690Z,16.32
2023-05-15T06:15:55.269Z,16.38
2023-05-15T06:18:59.089Z,16.36
2023-05-15T06:22:01.663Z,16.15
2023-05-15T06:25:05.296Z,16.46
2023-05-15T06:28:07.931Z,16.79
2023-05-15T06:31:10.659Z,16.81
2023-05-15T06:34:14.809Z,17.02
2023-05-15T06:37:17.449Z,16.90
2023-05-15T06:40:20.197Z,16.79
2023-05-15T06:43:22.922Z,17.00
2023-05-15T06:46:25.448Z,17.27
2023-05-15T06:49:29.330Z,17.29
2023-05-15T06:52:31.885Z,17.24
2023-05-15T06:55:36.417Z,17.24
2023-05-15T06:58:38.995Z,17.42
2023-05-15T07:01:41.541Z,17.58
2023-05-15T07:04:45.568Z,17.56
2023-05-15T07:07:48.156Z,17.81
2023-05-15T07:10:51.359Z,17.86
2023-05-15T07:13:54.194Z,18.05
2023-05-15T07:16:56.723Z,18.31
2023-05-15T07:20:00.781Z,18.32
2023-05-15T07:23:03.850Z,18.30
2023-05-15T07:26:08.794Z,18.34
2023-05-15T07:29:14.504Z,17.93
2023-05-15T07:32:17.150Z,17.78
2023-05-15T07:35:21.309Z,18.13
2023-05-15T07:38:24.057Z,18.22
2023-05-15T07:41:26.612Z,18.22
2023-05-15T07:44:29.215Z,18.21
2023-05-15T07:47:31.713Z,17.98
2023-05-15T07:50:35.583Z,18.30
2023-05-15T07:53:38.078Z,18.54
2023-05-15T07:56:41.427Z,18.55
2023-05-15T07:59:43.766Z,18.87
2023-05-15T08:02:47.398Z,18.94
2023-05-15T08:05:51.857Z,19.39
2023-05-15T08:08:54.455Z,19.35
2023-05-15T08:11:57.751Z,19.29
2023-05-15T08:15:00.243Z,19.01
2023-05-15T08:18:02.873Z,18.74
2023-05-15T08:21:07.387Z,18.51
2023-05-15T08:24:09.989Z,18.89
2023-05-15T08:27:12.833Z,19.54
2023-05-15T08:30:15.542Z,19.79
2023-05-15T08:33:18.155Z,19.58
2023-05-15T08:36:22.296Z,20.11
2023-05-15T08:39:25.701Z,19.73
2023-05-15T08:42:29.617Z,19.76
2023-05-15T08:45:32.052Z,20.08
2023-05-15T08:48:38.300Z,20.22
2023-05-15T08:51:42.457Z,20.56
2023-05-15T08:54:47.983Z,20.23
2023-05-15T08:57:51.713Z,20.68
2023-05-15T09:00:54.184Z,20.77
2023-05-15T09:03:56.925Z,21.09
2023-05-15T09:07:01.884Z,21.29
2023-05-15T09:10:05.628Z,21.88
2023-05-15T09:13:08.987Z,22.96
2023-05-15T09:16:11.663Z,22.12
2023-05-15T09:19:15.280Z,21.86
2023-05-15T09:22:23.352Z,22.29
2023-05-15T09:25:37.521Z,21.79
2023-05-15T09:28:40.897Z,20.70
2023-05-15T09:31:43.319Z,20.61
2023-05-15T09:34:46.048Z,20.19
2023-05-15T09:37:59.661Z,20.18
2023-05-15T09:41:04.061Z,20.79
2023-05-15T09:44:07.041Z,20.92
2023-05-15T09:47:10.763Z,21.62
2023-05-15T09:50:13.400Z,21.21
2023-05-15T09:53:21.480Z,21.28
2023-05-15T09:56:24.253Z,20.86
2023-05-15T09:59:26.778Z,21.40
2023-05-15T10:02:32.512Z,21.36
2023-05-15T10:08:52.270Z,21.81
2023-05-15T10:11:54.821Z,22.04
2023-05-15T10:14:58.412Z,21.80
2023-05-15T10:18:01.572Z,22.00
2023-05-15T10:21:04.701Z,21.49
2023-05-15T10:24:09.032Z,21.00
2023-05-15T10:27:11.918Z,20.76
2023-05-15T10:30:16.782Z,21.39
2023-05-15T10:33:20.634Z,21.79
2023-05-15T10:36:23.413Z,22.26
2023-05-15T10:39:28.470Z,21.97
2023-05-15T10:42:32.279Z,22.61
2023-05-15T10:45:36.104Z,23.01
2023-05-15T10:48:39.076Z,22.87
2023-05-15T10:51:43.473Z,22.88
2023-05-15T10:54:47.404Z,22.06
2023-05-15T10:57:49.928Z,22.14
2023-05-15T11:00:52.503Z,22.67
2023-05-15T11:04:07.655Z,23.47
2023-05-15T11:07:14.215Z,23.47
2023-05-15T11:10:39.527Z,23.35
2023-05-15T11:14:13.346Z,23.13
2023-05-15T11:17:16.537Z,23.58
2023-05-15T11:20:19.415Z,24.06
2023-05-15T11:23:22.761Z,23.21
2023-05-15T11:26:34.810Z,22.78
2023-05-15T11:29:37.284Z,21.93
2023-05-15T11:32:44.178Z,22.53
2023-05-15T11:35:47.909Z,22.67
2023-05-15T11:38:51.604Z,23.27
2023-05-15T11:41:56.063Z,23.75
2023-05-15T11:44:58.849Z,23.28
2023-05-15T11:48:03.354Z,23.22
2023-05-15T11:51:06.696Z,23.55
2023-05-15T11:54:09.530Z,23.64
2023-05-15T11:57:13.404Z,24.13
2023-05-15T12:00:16.957Z,24.68
2023-05-15T12:03:24.256Z,24.80
2023-05-15T12:06:27.455Z,24.51
2023-05-15T12:09:29.824Z,24.33
2023-05-15T12:12:33.763Z,24.61
2023-05-15T12:15:38.732Z,24.73
2023-05-15T12:18:41.309Z,24.92
2023-05-15T12:21:47.435Z,24.46
2023-05-15T12:24:49.996Z,25.83
2023-05-15T12:27:54.004Z,27.27
2023-05-15T12:30:56.830Z,27.70
2023-05-15T12:33:59.535Z,27.05
2023-05-15T12:37:02.090Z,26.83
2023-05-15T12:40:10.143Z,26.41
2023-05-15T12:43:14.545Z,27.06
2023-05-15T12:46:17.092Z,26.83
2023-05-15T12:49:23.381Z,26.56
2023-05-15T12:52:29.321Z,25.55
2023-05-15T12:55:33.507Z,24.99
2023-05-15T12:58:38.129Z,25.06
2023-05-15T13:01:42.161Z,25.16
2023-05-15T13:04:47.405Z,25.75
2023-05-15T13:07:50.100Z,25.81
2023-05-15T13:10:57.850Z,25.77
2023-05-15T13:14:01.757Z,26.44
2023-05-15T13:17:04.738Z,27.35
2023-05-15T13:20:08.706Z,27.56
2023-05-15T13:23:12.589Z,26.97
2023-05-15T13:26:15.232Z,26.76
2023-05-15T13:29:19.337Z,25.91
2023-05-15T13:32:22.009Z,25.37
2023-05-15T13:35:24.843Z,25.37
2023-05-15T13:38:27.372Z,25.51
2023-05-15T13:41:29.946Z,26.70
2023-05-15T13:44:35.734Z,27.04
2023-05-15T13:47:39.405Z,26.25
2023-05-15T13:50:43.205Z,25.29
2023-05-15T13:53:46.534Z,24.43
2023-05-15T13:56:49.248Z,22.91
2023-05-15T13:59:53.239Z,22.90
2023-05-15T14:02:55.750Z,22.73
2023-05-15T14:05:58.311Z,22.92
2023-05-15T14:09:00.778Z,23.45
2023-05-15T14:12:03.313Z,24.01
2023-05-15T14:15:08.321Z,24.45
2023-05-15T14:18:10.878Z,24.70
2023-05-15T14:21:13.515Z,26.01
2023-05-15T14:24:16.106Z,25.97
2023-05-15T14:27:18.620Z,25.75
2023-05-15T14:30:23.241Z,24.64
2023-05-15T14:33:26.395Z,24.09
2023-05-15T14:36:28.890Z,24.11
2023-05-15T14:39:31.428Z,24.88
2023-05-15T14:42:34.040Z,26.11
2023-05-15T14:45:37.905Z,27.18
2023-05-15T14:48:40.446Z,26.05
2023-05-15T14:51:42.997Z,26.81
2023-05-15T14:54:51.205Z,26.76
2023-05-15T14:57:59.808Z,26.80
2023-05-15T15:01:03.969Z,28.07
2023-05-15T15:04:06.865Z,30.20
2023-05-15T15:07:11.763Z,28.90
2023-05-15T15:10:14.272Z,27.78
2023-05-15T15:13:17.233Z,27.35
2023-05-15T15:16:20.912Z,25.30
2023-05-15T15:19:24.633Z,23.25
2023-05-15T15:22:27.258Z,22.43
2023-05-15T15:25:32.141Z,22.53
2023-05-15T15:28:35.294Z,21.76
2023-05-15T15:31:39.161Z,22.74
2023-05-15T15:34:41.728Z,24.71
2023-05-15T15:37:44.184Z,26.01
2023-05-15T15:40:46.768Z,25.97
2023-05-15T15:43:49.359Z,25.29
2023-05-15T15:46:53.247Z,24.32
2023-05-15T15:49:55.776Z,22.46
2023-05-15T15:52:58.552Z,22.28
2023-05-15T15:56:01.327Z,21.68
2023-05-15T15:59:03.928Z,20.77
2023-05-15T16:02:08.031Z,20.50
2023-05-15T16:05:11.039Z,20.16
2023-05-15T16:08:13.577Z,19.66
2023-05-15T16:11:16.616Z,19.24
2023-05-15T16:14:20.506Z,18.40
2023-05-15T16:17:24.421Z,17.72
2023-05-15T16:20:27.055Z,18.03
2023-05-15T16:23:29.796Z,18.27
2023-05-15T16:26:32.756Z,18.14
2023-05-15T16:29:35.367Z,17.56
2023-05-15T16:32:39.312Z,17.50
2023-05-15T16:35:41.834Z,17.43
2023-05-15T16:38:44.380Z,17.22
2023-05-15T16:41:47.033Z,17.50
2023-05-15T16:44:49.810Z,17.61
2023-05-15T16:47:54.054Z,17.59
2023-05-15T16:50:56.571Z,17.87
2023-05-15T16:53:59.470Z,18.14
2023-05-15T16:57:01.975Z,18.24
2023-05-15T17:00:05.278Z,18.38
2023-05-15T17:03:09.622Z,18.50
2023-05-15T17:06:12.228Z,18.64
2023-05-15T17:09:15.900Z,18.73
2023-05-15T17:12:18.672Z,19.04
2023-05-15T17:15:21.316Z,19.31
2023-05-15T17:18:25.352Z,19.54
2023-05-15T17:21:27.843Z,19.69
2023-05-15T17:24:42.203Z,19.78
2023-05-15T17:27:52.385Z,20.17
2023-05-15T17:30:54.858Z,20.61
2023-05-15T17:33:58.831Z,20.97
2023-05-15T17:37:01.394Z,21.13
2023-05-15T17:40:04.734Z,21.40
2023-05-15T17:43:09.711Z,21.19
2023-05-15T17:46:12.284Z,20.79
2023-05-15T17:49:16.204Z,20.49
2023-05-15T17:52:18.776Z,19.73
2023-05-15T17:55:21.499Z,19.41
2023-05-15T17:58:24.045Z,18.97
2023-05-15T18:01:26.580Z,18.79
2023-05-15T18:04:30.567Z,18.52
2023-05-15T18:07:33.184Z,18.34
2023-05-15T18:10:35.858Z,18.19
2023-05-15T18:13:38.342Z,17.92
2023-05-15T18:16:41.251Z,17.95
2023-05-15T18:19:45.580Z,17.83
2023-05-15T18:22:48.111Z,17.55
2023-05-15T18:25:51.719Z,17.54
2023-05-15T18:28:54.158Z,17.45
2023-05-15T18:31:56.787Z,17.42
2023-05-15T18:35:00.952Z,17.19
2023-05-15T18:38:03.631Z,17.12
2023-05-15T18:41:06.365Z,17.08
2023-05-15T18:44:09.052Z,17.04
2023-05-15T18:47:11.879Z,17.14
2023-05-15T18:50:16.269Z,17.08
2023-05-15T18:53:18.760Z,17.11
2023-05-15T18:56:22.509Z,17.06
2023-05-15T18:59:25.493Z,17.02
2023-05-15T19:02:28.449Z,17.00
2023-05-15T19:05:34.017Z,16.96
2023-05-15T19:08:36.998Z,16.98
2023-05-15T19:11:39.666Z,16.84
2023-05-15T19:14:42.258Z,16.78
2023-05-15T19:17:44.947Z,16.72
2023-05-15T19:20:51.881Z,16.73
2023-05-15T19:23:54.498Z,16.80
2023-05-15T19:26:57.155Z,16.76
2023-05-15T19:29:59.925Z,16.71
2023-05-15T19:33:02.636Z,16.66
2023-05-15T19:36:07.428Z,16.69
2023-05-15T19:39:09.941Z,16.63
2023-05-15T19:42:12.476Z,16.70
2023-05-15T19:45:15.072Z,16.64
2023-05-15T19:48:17.583Z,16.60
2023-05-15T19:51:21.417Z,16.57
2023-05-15T19:54:24.012Z,16.53
2023-05-15T19:57:26.497Z,16.42
2023-05-15T20:00:29.078Z,16.34
2023-05-15T20:03:33.554Z,16.21
2023-05-15T20:06:37.549Z,16.15
2023-05-15T20:09:40.138Z,16.18
2023-05-15T20:12:42.611Z,16.16
2023-05-15T20:15:45.339Z,16.09
2023-05-15T20:18:47.972Z,16.04
2023-05-15T20:21:51.892Z,15.96
2023-05-15T20:24:54.634Z,15.90
2023-05-15T20:27:58.681Z,15.85
2023-05-15T20:31:01.593Z,15.75
2023-05-15T20:34:07.216Z,15.71
2023-05-15T20:37:11.099Z,15.67
2023-05-15T20:40:15.695Z,15.66
2023-05-15T20:43:18.236Z,15.66
2023-05-15T20:46:21.157Z,15.68
2023-05-15T20:49:23.785Z,15.67
2023-05-15T20:52:27.680Z,15.58
2023-05-15T20:55:30.350Z,15.53
2023-05-15T20:58:33.238Z,15.51
2023-05-15T21:01:36.366Z,15.51
2023-05-15T21:04:39.347Z,15.45
2023-05-15T21:07:43.440Z,15.45
2023-05-15T21:10:50.922Z,15.43
2023-05-15T21:13:53.455Z,15.38
2023-05-15T21:16:56.495Z,15.32
2023-05-15T21:20:00.952Z,15.29
2023-05-15T21:23:04.924Z,15.27
2023-05-15T21:26:07.690Z,15.26
2023-05-15T21:29:10.224Z,15.21
2023-05-15T21:32:12.763Z,15.10
2023-05-15T21:35:15.257Z,15.06
2023-05-15T21:38:19.093Z,15.01
2023-05-15T21:41:22.125Z,15.03
2023-05-15T21:44:24.786Z,14.95
2023-05-15T21:47:27.416Z,14.91
2023-05-15T21:50:30.060Z,14.85
2023-05-15T21:53:33.977Z,14.82
2023-05-15T21:56:36.794Z,14.85
2023-05-15T21:59:39.827Z,14.89
2023-05-15T22:02:42.930Z,14.83
2023-05-15T22:05:45.888Z,14.80
2023-05-15T22:08:50.037Z,14.72
2023-05-15T22:11:52.567Z,14.72
2023-05-15T22:14:59.046Z,14.69
2023-05-15T22:18:05.353Z,14.65
2023-05-15T22:21:08.561Z,14.60
2023-05-15T22:24:12.630Z,14.56
2023-05-15T22:27:16.865Z,14.58
2023-05-15T22:30:19.792Z,14.56
2023-05-15T22:33:24.096Z,14.54
2023-05-15T22:36:26.799Z,14.39
2023-05-15T22:39:30.789Z,14.36
2023-05-15T22:42:33.440Z,14.40
2023-05-15T22:45:36.193Z,14.39
2023-05-15T22:48:38.766Z,14.29
2023-05-15T22:51:41.391Z,14.23
2023-05-15T22:54:45.813Z,14.16
2023-05-15T22:57:48.321Z,14.16
2023-05-15T23:00:51.164Z,14.10
2023-05-15T23:03:53.813Z,14.08
2023-05-15T23:06:56.924Z,14.00
2023-05-15T23:10:00.890Z,14.04
2023-05-15T23:13:03.568Z,14.10
2023-05-15T23:16:06.690Z,14.05
2023-05-15T23:19:09.509Z,13.99
2023-05-15T23:22:12.752Z,13.97
2023-05-15T23:25:16.793Z,13.89
2023-05-15T23:28:19.484Z,13.89
2023-05-15T23:31:22.019Z,13.87
2023-05-15T23:34:24.914Z,13.90
2023-05-15T23:37:27.487Z,13.88
2023-05-15T23:40:31.565Z,13.83
2023-05-15T23:43:34.210Z,13.82
2023-05-15T23:46:38.569Z,13.85
2023-05-15T23:49:42.060Z,13.85
2023-05-15T23:52:45.228Z,13.85
2023-05-15T23:55:49.241Z,13.85
2023-05-15T23:58:51.805Z,13.86
